sensor_id;sensor_type;location;lat;lon;timestamp;temperature;humidity
16491;DHT22;8356;51.214;3.270;2024-01-15T00:02:17;179.50;2252.80
16491;DHT22;8356;51.214;3.270;2024-01-15T00:04:43;179.40;2252.80
16491;DHT22;8356;51.214;3.270;2024-01-15T00:07:08;179.30;2252.80
16491;DHT22;8356;51.214;3.270;2024-01-15T00:09:34;179.30;2252.80
16491;DHT22;8356;51.214;3.270;2024-01-15T00:12:01;179.30;2252.80
16491;DHT22;8356;51.214;3.270;2024-01-15T00:14:27;179.80;2252.80
16491;DHT22;8356;51.214;3.270;2024-01-15T00:16:53;205.00;2252.80
16491;DHT22;8356;51.214;3.270;2024-01-15T00:19:21;179.30;2252.80
16491;DHT22;8356;51.214;3.270;2024-01-15T00:21:46;179.30;2252.80
16491;DHT22;8356;51.214;3.270;2024-01-15T00:24:12;179.40;2252.80
16491;DHT22;8356;51.214;3.270;2024-01-15T00:26:38;179.40;2252.80
16491;DHT22;8356;51.214;3.270;2024-01-15T00:29:03;179.50;2252.80
16491;DHT22;8356;51.214;3.270;2024-01-15T00:31:29;179.50;2252.80
16491;DHT22;8356;51.214;3.270;2024-01-15T00:33:56;179.50;2252.80
16491;DHT22;8356;51.214;3.270;2024-01-15T00:36:23;179.40;2252.80
16491;DHT22;8356;51.214;3.270;2024-01-15T00:38:48;179.50;2252.80
16491;DHT22;8356;51.214;3.270;2024-01-15T00:41:14;179.50;2252.80
16491;DHT22;8356;51.214;3.270;2024-01-15T00:43:40;153.90;2252.80
16491;DHT22;8356;51.214;3.270;2024-01-15T00:46:06;179.50;2252.80
16491;DHT22;8356;51.214;3.270;2024-01-15T00:48:32;179.50;2252.80
16491;DHT22;8356;51.214;3.270;2024-01-15T00:50:57;179.70;2252.80
16491;DHT22;8356;51.214;3.270;2024-01-15T00:53:23;179.70;2252.80
16491;DHT22;8356;51.214;3.270;2024-01-15T00:55:49;179.70;2252.80
16491;DHT22;8356;51.214;3.270;2024-01-15T00:58:15;179.80;2252.80
16491;DHT22;8356;51.214;3.270;2024-01-15T01:00:41;179.70;2252.80
16491;DHT22;8356;51.214;3.270;2024-01-15T01:03:06;179.70;2252.80
16491;DHT22;8356;51.214;3.270;2024-01-15T01:05:34;179.70;2252.80
16491;DHT22;8356;51.214;3.270;2024-01-15T01:08:00;179.70;2252.80
16491;DHT22;8356;51.214;3.270;2024-01-15T01:10:25;179.80;2252.80
16491;DHT22;8356;51.214;3.270;2024-01-15T01:12:51;179.90;2252.80
16491;DHT22;8356;51.214;3.270;2024-01-15T01:15:17;180.00;2252.80
16491;DHT22;8356;51.214;3.270;2024-01-15T01:17:42;179.90;2252.80
16491;DHT22;8356;51.214;3.270;2024-01-15T01:20:08;179.80;2252.80
16491;DHT22;8356;51.214;3.270;2024-01-15T01:22:36;179.70;2252.80
16491;DHT22;8356;51.214;3.270;2024-01-15T01:25:02;179.90;2252.80
16491;DHT22;8356;51.214;3.270;2024-01-15T01:27:28;179.80;2252.80
16491;DHT22;8356;51.214;3.270;2024-01-15T01:29:54;179.80;2252.80
16491;DHT22;8356;51.214;3.270;2024-01-15T01:32:19;179.70;2252.80
16491;DHT22;8356;51.214;3.270;2024-01-15T01:34:45;179.70;2252.80
16491;DHT22;8356;51.214;3.270;2024-01-15T01:37:11;179.60;2252.80
16491;DHT22;8356;51.214;3.270;2024-01-15T01:39:41;179.60;2252.80
16491;DHT22;8356;51.214;3.270;2024-01-15T01:42:06;179.80;2252.80
16491;DHT22;8356;51.214;3.270;2024-01-15T01:44:32;179.60;2252.80
16491;DHT22;8356;51.214;3.270;2024-01-15T01:46:59;179.60;2252.80
16491;DHT22;8356;51.214;3.270;2024-01-15T01:49:26;179.70;2252.80
16491;DHT22;8356;51.214;3.270;2024-01-15T01:51:53;179.80;2252.80
16491;DHT22;8356;51.214;3.270;2024-01-15T01:54:19;179.90;2252.80
16491;DHT22;8356;51.214;3.270;2024-01-15T01:56:47;179.80;2252.80
16491;DHT22;8356;51.214;3.270;2024-01-15T01:59:14;179.70;2252.80
16491;DHT22;8356;51.214;3.270;2024-01-15T02:01:40;179.60;2252.80
16491;DHT22;8356;51.214;3.270;2024-01-15T02:04:07;179.50;2252.80
16491;DHT22;8356;51.214;3.270;2024-01-15T02:06:34;179.50;2252.80
16491;DHT22;8356;51.214;3.270;2024-01-15T02:08:59;179.50;2252.80
16491;DHT22;8356;51.214;3.270;2024-01-15T02:11:26;179.60;2252.80
16491;DHT22;8356;51.214;3.270;2024-01-15T02:13:51;179.60;2252.80
16491;DHT22;8356;51.214;3.270;2024-01-15T02:16:17;179.70;2252.80
16491;DHT22;8356;51.214;3.270;2024-01-15T02:18:44;179.60;2252.80
16491;DHT22;8356;51.214;3.270;2024-01-15T02:21:10;179.80;2252.80
16491;DHT22;8356;51.214;3.270;2024-01-15T02:23:36;179.50;2252.80
16491;DHT22;8356;51.214;3.270;2024-01-15T02:26:02;179.50;2252.80
16491;DHT22;8356;51.214;3.270;2024-01-15T02:28:29;179.60;2252.80
16491;DHT22;8356;51.214;3.270;2024-01-15T02:30:54;179.60;2252.80
16491;DHT22;8356;51.214;3.270;2024-01-15T02:33:20;179.50;2252.80
16491;DHT22;8356;51.214;3.270;2024-01-15T02:35:46;179.60;2252.80
16491;DHT22;8356;51.214;3.270;2024-01-15T02:38:12;179.50;2252.80
16491;DHT22;8356;51.214;3.270;2024-01-15T02:40:39;179.50;2252.80
16491;DHT22;8356;51.214;3.270;2024-01-15T02:43:04;179.50;2252.80
16491;DHT22;8356;51.214;3.270;2024-01-15T02:45:30;179.60;2252.80
16491;DHT22;8356;51.214;3.270;2024-01-15T02:47:56;179.50;2252.80
16491;DHT22;8356;51.214;3.270;2024-01-15T02:50:21;179.40;2252.80
16491;DHT22;8356;51.214;3.270;2024-01-15T02:52:47;179.40;2252.80
16491;DHT22;8356;51.214;3.270;2024-01-15T02:55:13;179.50;2252.80
16491;DHT22;8356;51.214;3.270;2024-01-15T02:57:38;179.40;2252.80
16491;DHT22;8356;51.214;3.270;2024-01-15T03:00:04;179.40;2252.80
16491;DHT22;8356;51.214;3.270;2024-01-15T03:02:30;179.30;2252.80
16491;DHT22;8356;51.214;3.270;2024-01-15T03:04:59;179.40;2252.80
16491;DHT22;8356;51.214;3.270;2024-01-15T03:07:24;179.40;2252.80
16491;DHT22;8356;51.214;3.270;2024-01-15T03:09:50;179.40;2252.80
16491;DHT22;8356;51.214;3.270;2024-01-15T03:12:15;179.40;2252.80
16491;DHT22;8356;51.214;3.270;2024-01-15T03:14:41;179.30;2252.80
16491;DHT22;8356;51.214;3.270;2024-01-15T03:17:07;179.30;2252.80
16491;DHT22;8356;51.214;3.270;2024-01-15T03:19:35;179.30;2252.80
16491;DHT22;8356;51.214;3.270;2024-01-15T03:22:01;179.30;2252.80
16491;DHT22;8356;51.214;3.270;2024-01-15T03:24:28;179.20;2252.80
16491;DHT22;8356;51.214;3.270;2024-01-15T03:26:53;179.30;2252.80
16491;DHT22;8356;51.214;3.270;2024-01-15T03:29:19;179.40;2252.80
16491;DHT22;8356;51.214;3.270;2024-01-15T03:31:44;179.50;2252.80
16491;DHT22;8356;51.214;3.270;2024-01-15T03:34:10;179.50;2252.80
16491;DHT22;8356;51.214;3.270;2024-01-15T03:36:36;179.40;2252.80
16491;DHT22;8356;51.214;3.270;2024-01-15T03:39:02;179.30;2252.80
16491;DHT22;8356;51.214;3.270;2024-01-15T03:41:27;179.30;2252.80
16491;DHT22;8356;51.214;3.270;2024-01-15T03:43:53;179.30;2252.80
16491;DHT22;8356;51.214;3.270;2024-01-15T03:46:19;179.20;2252.80
16491;DHT22;8356;51.214;3.270;2024-01-15T03:48:44;179.30;2252.80
16491;DHT22;8356;51.214;3.270;2024-01-15T03:51:10;179.30;2252.80
16491;DHT22;8356;51.214;3.270;2024-01-15T03:53:37;179.20;2252.80
16491;DHT22;8356;51.214;3.270;2024-01-15T03:56:03;179.20;2252.80
16491;DHT22;8356;51.214;3.270;2024-01-15T03:58:29;154.50;2252.80
16491;DHT22;8356;51.214;3.270;2024-01-15T04:00:54;179.30;2252.80
16491;DHT22;8356;51.214;3.270;2024-01-15T04:03:20;154.50;2252.80
16491;DHT22;8356;51.214;3.270;2024-01-15T04:05:45;179.20;2252.80
16491;DHT22;8356;51.214;3.270;2024-01-15T04:08:11;179.30;2252.80
16491;DHT22;8356;51.214;3.270;2024-01-15T04:10:37;154.50;2252.80
16491;DHT22;8356;51.214;3.270;2024-01-15T04:13:02;154.40;2252.80
16491;DHT22;8356;51.214;3.270;2024-01-15T04:15:29;154.30;2252.80
16491;DHT22;8356;51.214;3.270;2024-01-15T04:17:54;154.20;2252.80
16491;DHT22;8356;51.214;3.270;2024-01-15T04:20:20;154.10;2252.80
16491;DHT22;8356;51.214;3.270;2024-01-15T04:22:45;154.10;2252.80
16491;DHT22;8356;51.214;3.270;2024-01-15T04:25:11;154.10;2252.80
16491;DHT22;8356;51.214;3.270;2024-01-15T04:27:37;154.10;2252.80
16491;DHT22;8356;51.214;3.270;2024-01-15T04:30:03;154.00;2252.80
16491;DHT22;8356;51.214;3.270;2024-01-15T04:32:28;154.40;2252.80
16491;DHT22;8356;51.214;3.270;2024-01-15T04:34:55;153.90;2252.80
16491;DHT22;8356;51.214;3.270;2024-01-15T04:37:20;154.00;2252.80
16491;DHT22;8356;51.214;3.270;2024-01-15T04:39:46;154.10;2252.80
16491;DHT22;8356;51.214;3.270;2024-01-15T04:42:12;154.00;2252.80
16491;DHT22;8356;51.214;3.270;2024-01-15T04:44:37;153.80;2252.80
16491;DHT22;8356;51.214;3.270;2024-01-15T04:47:03;153.80;2252.80
16491;DHT22;8356;51.214;3.270;2024-01-15T04:49:29;153.80;2252.80
16491;DHT22;8356;51.214;3.270;2024-01-15T04:51:55;153.80;2252.80
16491;DHT22;8356;51.214;3.270;2024-01-15T04:54:21;153.80;2252.80
16491;DHT22;8356;51.214;3.270;2024-01-15T04:56:46;153.80;2252.80
16491;DHT22;8356;51.214;3.270;2024-01-15T04:59:13;153.80;2252.80
16491;DHT22;8356;51.214;3.270;2024-01-15T05:01:39;153.80;2252.80
16491;DHT22;8356;51.214;3.270;2024-01-15T05:04:05;153.70;2252.80
16491;DHT22;8356;51.214;3.270;2024-01-15T05:06:31;153.80;2252.80
16491;DHT22;8356;51.214;3.270;2024-01-15T05:08:57;153.80;2252.80
16491;DHT22;8356;51.214;3.270;2024-01-15T05:11:22;153.80;2252.80
16491;DHT22;8356;51.214;3.270;2024-01-15T05:13:48;153.60;2252.80
16491;DHT22;8356;51.214;3.270;2024-01-15T05:16:14;153.60;2252.80
16491;DHT22;8356;51.214;3.270;2024-01-15T05:18:39;153.80;2252.80
16491;DHT22;8356;51.214;3.270;2024-01-15T05:21:05;153.60;2252.80
16491;DHT22;8356;51.214;3.270;2024-01-15T05:23:34;153.80;2252.80
16491;DHT22;8356;51.214;3.270;2024-01-15T05:26:00;153.70;2252.80
16491;DHT22;8356;51.214;3.270;2024-01-15T05:28:25;153.70;2252.80
16491;DHT22;8356;51.214;3.270;2024-01-15T05:30:51;153.80;2252.80
16491;DHT22;8356;51.214;3.270;2024-01-15T05:33:17;153.80;2252.80
16491;DHT22;8356;51.214;3.270;2024-01-15T05:35:43;153.80;2252.80
16491;DHT22;8356;51.214;3.270;2024-01-15T05:38:09;153.90;2252.80
16491;DHT22;8356;51.214;3.270;2024-01-15T05:40:34;153.90;2252.80
16491;DHT22;8356;51.214;3.270;2024-01-15T05:43:00;153.90;2252.80
16491;DHT22;8356;51.214;3.270;2024-01-15T05:45:30;153.80;2252.80
16491;DHT22;8356;51.214;3.270;2024-01-15T05:47:56;153.70;2252.80
16491;DHT22;8356;51.214;3.270;2024-01-15T05:50:22;153.70;2252.80
16491;DHT22;8356;51.214;3.270;2024-01-15T05:52:47;153.70;2252.80
16491;DHT22;8356;51.214;3.270;2024-01-15T05:55:13;153.70;2252.80
16491;DHT22;8356;51.214;3.270;2024-01-15T05:57:39;153.70;2252.80
16491;DHT22;8356;51.214;3.270;2024-01-15T06:00:06;153.60;2252.80
16491;DHT22;8356;51.214;3.270;2024-01-15T06:02:32;153.70;2252.80
16491;DHT22;8356;51.214;3.270;2024-01-15T06:04:57;153.60;2252.80
16491;DHT22;8356;51.214;3.270;2024-01-15T06:07:23;153.60;2252.80
16491;DHT22;8356;51.214;3.270;2024-01-15T06:09:49;153.60;2252.80
16491;DHT22;8356;51.214;3.270;2024-01-15T06:12:14;153.60;2252.80
16491;DHT22;8356;51.214;3.270;2024-01-15T06:14:40;153.60;2252.80
16491;DHT22;8356;51.214;3.270;2024-01-15T06:17:07;153.70;2252.80
16491;DHT22;8356;51.214;3.270;2024-01-15T06:19:32;153.70;2252.80
16491;DHT22;8356;51.214;3.270;2024-01-15T06:21:58;128.90;2252.80
16491;DHT22;8356;51.214;3.270;2024-01-15T06:24:24;128.90;2252.80
16491;DHT22;8356;51.214;3.270;2024-01-15T06:26:49;128.90;2252.80
16491;DHT22;8356;51.214;3.270;2024-01-15T06:29:15;128.90;2252.80
16491;DHT22;8356;51.214;3.270;2024-01-15T06:31:40;128.80;2252.80
16491;DHT22;8356;51.214;3.270;2024-01-15T06:34:06;128.80;2252.80
16491;DHT22;8356;51.214;3.270;2024-01-15T06:36:32;128.80;2252.80
16491;DHT22;8356;51.214;3.270;2024-01-15T06:38:57;128.70;2252.80
16491;DHT22;8356;51.214;3.270;2024-01-15T06:41:23;128.80;2252.80
16491;DHT22;8356;51.214;3.270;2024-01-15T06:43:50;128.80;2252.80
16491;DHT22;8356;51.214;3.270;2024-01-15T06:46:22;128.80;2252.80
16491;DHT22;8356;51.214;3.270;2024-01-15T06:48:48;128.40;2252.80
16491;DHT22;8356;51.214;3.270;2024-01-15T06:51:15;153.60;2252.80
16491;DHT22;8356;51.214;3.270;2024-01-15T06:53:40;153.70;2252.80
16491;DHT22;8356;51.214;3.270;2024-01-15T06:56:06;128.80;2252.80
16491;DHT22;8356;51.214;3.270;2024-01-15T06:58:32;128.80;2252.80
16491;DHT22;8356;51.214;3.270;2024-01-15T07:00:58;128.70;2252.80
16491;DHT22;8356;51.214;3.270;2024-01-15T07:03:23;128.70;2252.80
16491;DHT22;8356;51.214;3.270;2024-01-15T07:05:49;128.60;2252.80
16491;DHT22;8356;51.214;3.270;2024-01-15T07:08:15;128.70;2252.80
16491;DHT22;8356;51.214;3.270;2024-01-15T07:10:40;128.60;2252.80
16491;DHT22;8356;51.214;3.270;2024-01-15T07:13:06;128.70;2252.80
16491;DHT22;8356;51.214;3.270;2024-01-15T07:15:32;128.60;2252.80
16491;DHT22;8356;51.214;3.270;2024-01-15T07:17:57;128.60;2252.80
16491;DHT22;8356;51.214;3.270;2024-01-15T07:20:23;128.60;2252.80
16491;DHT22;8356;51.214;3.270;2024-01-15T07:22:48;128.50;2252.80
16491;DHT22;8356;51.214;3.270;2024-01-15T07:25:15;128.60;2252.80
16491;DHT22;8356;51.214;3.270;2024-01-15T07:27:41;128.60;2252.80
16491;DHT22;8356;51.214;3.270;2024-01-15T07:30:10;128.60;2252.80
16491;DHT22;8356;51.214;3.270;2024-01-15T07:32:37;128.60;2252.80
16491;DHT22;8356;51.214;3.270;2024-01-15T07:35:03;128.60;2252.80
16491;DHT22;8356;51.214;3.270;2024-01-15T07:37:28;128.20;2252.80
16491;DHT22;8356;51.214;3.270;2024-01-15T07:39:54;128.60;2252.80
16491;DHT22;8356;51.214;3.270;2024-01-15T07:42:20;128.60;2252.80
16491;DHT22;8356;51.214;3.270;2024-01-15T07:44:45;128.50;2252.80
16491;DHT22;8356;51.214;3.270;2024-01-15T07:47:11;128.60;2252.80
16491;DHT22;8356;51.214;3.270;2024-01-15T07:49:37;128.60;2252.80
16491;DHT22;8356;51.214;3.270;2024-01-15T07:52:03;128.70;2252.80
16491;DHT22;8356;51.214;3.270;2024-01-15T07:54:30;128.60;2252.80
16491;DHT22;8356;51.214;3.270;2024-01-15T07:56:57;128.70;2252.80
16491;DHT22;8356;51.214;3.270;2024-01-15T07:59:24;128.50;2252.80
16491;DHT22;8356;51.214;3.270;2024-01-15T08:01:51;128.60;2252.80
16491;DHT22;8356;51.214;3.270;2024-01-15T08:04:17;128.50;2252.80
16491;DHT22;8356;51.214;3.270;2024-01-15T08:06:42;128.40;2252.80
16491;DHT22;8356;51.214;3.270;2024-01-15T08:09:08;128.40;2252.80
16491;DHT22;8356;51.214;3.270;2024-01-15T08:11:34;128.50;2252.80
16491;DHT22;8356;51.214;3.270;2024-01-15T08:14:00;128.80;2252.80
16491;DHT22;8356;51.214;3.270;2024-01-15T08:16:26;128.80;2252.80
16491;DHT22;8356;51.214;3.270;2024-01-15T08:18:53;128.70;2252.80
16491;DHT22;8356;51.214;3.270;2024-01-15T08:21:19;128.70;2252.80
16491;DHT22;8356;51.214;3.270;2024-01-15T08:23:45;128.70;2252.80
16491;DHT22;8356;51.214;3.270;2024-01-15T08:26:11;128.70;2252.80
16491;DHT22;8356;51.214;3.270;2024-01-15T08:28:37;128.60;2252.80
16491;DHT22;8356;51.214;3.270;2024-01-15T08:31:02;128.70;2252.80
16491;DHT22;8356;51.214;3.270;2024-01-15T08:33:29;128.70;2252.80
16491;DHT22;8356;51.214;3.270;2024-01-15T08:35:54;128.70;2252.80
16491;DHT22;8356;51.214;3.270;2024-01-15T08:38:20;128.80;2252.80
16491;DHT22;8356;51.214;3.270;2024-01-15T08:40:46;128.70;2252.80
16491;DHT22;8356;51.214;3.270;2024-01-15T08:43:12;128.80;2252.80
16491;DHT22;8356;51.214;3.270;2024-01-15T08:45:38;128.80;2252.80
16491;DHT22;8356;51.214;3.270;2024-01-15T08:48:04;128.80;2252.80
16491;DHT22;8356;51.214;3.270;2024-01-15T08:50:30;128.80;2252.80
16491;DHT22;8356;51.214;3.270;2024-01-15T08:52:57;128.80;2252.80
16491;DHT22;8356;51.214;3.270;2024-01-15T08:55:24;128.70;2252.80
16491;DHT22;8356;51.214;3.270;2024-01-15T08:57:50;128.80;2252.80
16491;DHT22;8356;51.214;3.270;2024-01-15T09:00:16;154.30;2252.80
16491;DHT22;8356;51.214;3.270;2024-01-15T09:02:43;153.60;2252.80
16491;DHT22;8356;51.214;3.270;2024-01-15T09:05:09;128.80;2252.80
16491;DHT22;8356;51.214;3.270;2024-01-15T09:07:34;128.80;2252.80
16491;DHT22;8356;51.214;3.270;2024-01-15T09:10:00;128.70;2252.80
16491;DHT22;8356;51.214;3.270;2024-01-15T09:12:27;128.80;2252.80
16491;DHT22;8356;51.214;3.270;2024-01-15T09:14:52;128.80;2252.80
16491;DHT22;8356;51.214;3.270;2024-01-15T09:17:19;128.80;2252.80
16491;DHT22;8356;51.214;3.270;2024-01-15T09:19:45;128.80;2252.80
16491;DHT22;8356;51.214;3.270;2024-01-15T09:22:12;128.90;2252.80
16491;DHT22;8356;51.214;3.270;2024-01-15T09:24:40;128.90;2252.80
16491;DHT22;8356;51.214;3.270;2024-01-15T09:27:06;153.60;2252.80
16491;DHT22;8356;51.214;3.270;2024-01-15T09:29:32;153.70;2252.80
16491;DHT22;8356;51.214;3.270;2024-01-15T09:31:58;153.90;2252.80
16491;DHT22;8356;51.214;3.270;2024-01-15T09:34:24;154.10;2252.80
16491;DHT22;8356;51.214;3.270;2024-01-15T09:36:49;154.10;2252.80
16491;DHT22;8356;51.214;3.270;2024-01-15T09:39:15;154.20;2252.80
16491;DHT22;8356;51.214;3.270;2024-01-15T09:41:41;154.10;2252.80
16491;DHT22;8356;51.214;3.270;2024-01-15T09:44:08;179.40;2252.80
16491;DHT22;8356;51.214;3.270;2024-01-15T09:46:35;154.20;2252.80
16491;DHT22;8356;51.214;3.270;2024-01-15T09:49:01;154.20;2252.80
16491;DHT22;8356;51.214;3.270;2024-01-15T09:51:31;154.20;2252.80
16491;DHT22;8356;51.214;3.270;2024-01-15T09:53:57;154.10;2252.80
16491;DHT22;8356;51.214;3.270;2024-01-15T09:56:23;153.60;2252.80
16491;DHT22;8356;51.214;3.270;2024-01-15T09:58:50;153.80;2252.80
16491;DHT22;8356;51.214;3.270;2024-01-15T10:01:20;153.80;2252.80
16491;DHT22;8356;51.214;3.270;2024-01-15T10:03:46;154.10;2252.80
16491;DHT22;8356;51.214;3.270;2024-01-15T10:06:15;153.90;2252.80
16491;DHT22;8356;51.214;3.270;2024-01-15T10:08:46;153.80;2252.80
16491;DHT22;8356;51.214;3.270;2024-01-15T10:11:12;153.70;2252.80
16491;DHT22;8356;51.214;3.270;2024-01-15T10:13:39;153.80;2252.80
16491;DHT22;8356;51.214;3.270;2024-01-15T10:16:05;153.80;2252.80
16491;DHT22;8356;51.214;3.270;2024-01-15T10:18:31;153.80;2252.80
16491;DHT22;8356;51.214;3.270;2024-01-15T10:20:57;153.70;2252.80
16491;DHT22;8356;51.214;3.270;2024-01-15T10:23:26;153.90;2252.80
16491;DHT22;8356;51.214;3.270;2024-01-15T10:25:52;154.00;2252.80
16491;DHT22;8356;51.214;3.270;2024-01-15T10:28:19;154.10;2252.80
16491;DHT22;8356;51.214;3.270;2024-01-15T10:30:45;154.30;2252.80
16491;DHT22;8356;51.214;3.270;2024-01-15T10:33:10;154.20;2252.80
16491;DHT22;8356;51.214;3.270;2024-01-15T10:35:38;154.40;2252.80
16491;DHT22;8356;51.214;3.270;2024-01-15T10:38:05;179.20;2252.80
16491;DHT22;8356;51.214;3.270;2024-01-15T10:40:31;179.30;2252.80
16491;DHT22;8356;51.214;3.270;2024-01-15T10:42:57;179.30;2252.80
16491;DHT22;8356;51.214;3.270;2024-01-15T10:45:24;179.30;2252.80
16491;DHT22;8356;51.214;3.270;2024-01-15T10:47:50;154.40;2252.80
16491;DHT22;8356;51.214;3.270;2024-01-15T10:50:15;154.40;2252.80
16491;DHT22;8356;51.214;3.270;2024-01-15T10:52:41;154.40;2252.80
16491;DHT22;8356;51.214;3.270;2024-01-15T10:55:08;179.30;2252.80
16491;DHT22;8356;51.214;3.270;2024-01-15T10:57:35;179.30;2252.80
16491;DHT22;8356;51.214;3.270;2024-01-15T11:00:02;154.50;2252.80
16491;DHT22;8356;51.214;3.270;2024-01-15T11:02:35;179.80;2252.80
16491;DHT22;8356;51.214;3.270;2024-01-15T11:05:01;179.20;2252.80
16491;DHT22;8356;51.214;3.270;2024-01-15T11:07:27;154.50;2252.80
16491;DHT22;8356;51.214;3.270;2024-01-15T11:09:55;154.50;2252.80
16491;DHT22;8356;51.214;3.270;2024-01-15T11:12:20;179.30;2252.80
16491;DHT22;8356;51.214;3.270;2024-01-15T11:14:47;179.40;2252.80
16491;DHT22;8356;51.214;3.270;2024-01-15T11:17:14;179.40;2252.80
16491;DHT22;8356;51.214;3.270;2024-01-15T11:19:45;179.50;2252.80
16491;DHT22;8356;51.214;3.270;2024-01-15T11:24:57;154.50;2252.80
16491;DHT22;8356;51.214;3.270;2024-01-15T11:27:44;154.50;2252.80
16491;DHT22;8356;51.214;3.270;2024-01-15T11:30:13;154.30;2252.80
16491;DHT22;8356;51.214;3.270;2024-01-15T11:32:39;154.20;2252.80
16491;DHT22;8356;51.214;3.270;2024-01-15T11:35:09;154.30;2252.80
16491;DHT22;8356;51.214;3.270;2024-01-15T11:40:37;154.20;2252.80
16491;DHT22;8356;51.214;3.270;2024-01-15T11:43:04;154.20;2252.80
16491;DHT22;8356;51.214;3.270;2024-01-15T11:45:30;154.20;2252.80
16491;DHT22;8356;51.214;3.270;2024-01-15T11:48:09;154.10;2252.80
16491;DHT22;8356;51.214;3.270;2024-01-15T11:50:48;154.10;2252.80
16491;DHT22;8356;51.214;3.270;2024-01-15T11:53:27;154.10;2252.80
16491;DHT22;8356;51.214;3.270;2024-01-15T11:55:58;154.10;2252.80
16491;DHT22;8356;51.214;3.270;2024-01-15T11:58:25;154.10;2252.80
16491;DHT22;8356;51.214;3.270;2024-01-15T12:00:51;154.10;2252.80
16491;DHT22;8356;51.214;3.270;2024-01-15T12:03:24;154.20;2252.80
16491;DHT22;8356;51.214;3.270;2024-01-15T12:05:51;154.20;2252.80
16491;DHT22;8356;51.214;3.270;2024-01-15T12:08:24;154.10;2252.80
16491;DHT22;8356;51.214;3.270;2024-01-15T12:10:51;154.10;2252.80
16491;DHT22;8356;51.214;3.270;2024-01-15T12:13:17;154.00;2252.80
16491;DHT22;8356;51.214;3.270;2024-01-15T12:15:46;153.90;2252.80
16491;DHT22;8356;51.214;3.270;2024-01-15T12:18:17;153.80;2252.80
16491;DHT22;8356;51.214;3.270;2024-01-15T12:20:44;153.80;2252.80
16491;DHT22;8356;51.214;3.270;2024-01-15T12:23:12;154.10;2252.80
16491;DHT22;8356;51.214;3.270;2024-01-15T12:25:39;154.50;2252.80
16491;DHT22;8356;51.214;3.270;2024-01-15T12:28:06;154.40;2252.80
16491;DHT22;8356;51.214;3.270;2024-01-15T12:30:33;179.40;2252.80
16491;DHT22;8356;51.214;3.270;2024-01-15T12:33:06;179.30;2252.80
16491;DHT22;8356;51.214;3.270;2024-01-15T12:35:33;154.50;2252.80
16491;DHT22;8356;51.214;3.270;2024-01-15T12:38:00;154.40;2252.80
16491;DHT22;8356;51.214;3.270;2024-01-15T12:40:30;154.40;2252.80
16491;DHT22;8356;51.214;3.270;2024-01-15T12:42:56;179.20;2252.80
16491;DHT22;8356;51.214;3.270;2024-01-15T12:45:21;179.20;2252.80
16491;DHT22;8356;51.214;3.270;2024-01-15T12:47:47;154.30;2252.80
16491;DHT22;8356;51.214;3.270;2024-01-15T12:50:13;154.20;2252.80
16491;DHT22;8356;51.214;3.270;2024-01-15T12:52:42;154.20;2252.80
16491;DHT22;8356;51.214;3.270;2024-01-15T12:55:08;154.30;2252.80
16491;DHT22;8356;51.214;3.270;2024-01-15T12:57:35;154.30;2252.80
16491;DHT22;8356;51.214;3.270;2024-01-15T13:00:02;154.20;2252.80
16491;DHT22;8356;51.214;3.270;2024-01-15T13:02:28;154.30;2252.80
16491;DHT22;8356;51.214;3.270;2024-01-15T13:04:54;154.30;2252.80
16491;DHT22;8356;51.214;3.270;2024-01-15T13:07:20;154.30;2252.80
16491;DHT22;8356;51.214;3.270;2024-01-15T13:09:46;154.20;2252.80
16491;DHT22;8356;51.214;3.270;2024-01-15T13:12:12;154.10;2252.80
16491;DHT22;8356;51.214;3.270;2024-01-15T13:14:37;154.10;2252.80
16491;DHT22;8356;51.214;3.270;2024-01-15T13:17:03;154.20;2252.80
16491;DHT22;8356;51.214;3.270;2024-01-15T13:19:29;154.20;2252.80
16491;DHT22;8356;51.214;3.270;2024-01-15T13:21:55;154.20;2252.80
16491;DHT22;8356;51.214;3.270;2024-01-15T13:24:24;154.20;2252.80
16491;DHT22;8356;51.214;3.270;2024-01-15T13:26:49;154.10;2252.80
16491;DHT22;8356;51.214;3.270;2024-01-15T13:29:15;154.10;2252.80
16491;DHT22;8356;51.214;3.270;2024-01-15T13:31:40;154.10;2252.80
16491;DHT22;8356;51.214;3.270;2024-01-15T13:34:06;154.10;2252.80
16491;DHT22;8356;51.214;3.270;2024-01-15T13:36:32;153.90;2252.80
16491;DHT22;8356;51.214;3.270;2024-01-15T13:38:58;154.30;2252.80
16491;DHT22;8356;51.214;3.270;2024-01-15T13:41:24;154.10;2252.80
16491;DHT22;8356;51.214;3.270;2024-01-15T13:43:54;154.10;2252.80
16491;DHT22;8356;51.214;3.270;2024-01-15T13:46:20;154.10;2252.80
16491;DHT22;8356;51.214;3.270;2024-01-15T13:48:47;154.00;2252.80
16491;DHT22;8356;51.214;3.270;2024-01-15T13:51:13;154.10;2252.80
16491;DHT22;8356;51.214;3.270;2024-01-15T13:53:38;154.10;2252.80
16491;DHT22;8356;51.214;3.270;2024-01-15T13:56:05;154.10;2252.80
16491;DHT22;8356;51.214;3.270;2024-01-15T13:58:31;153.80;2252.80
16491;DHT22;8356;51.214;3.270;2024-01-15T14:00:58;154.20;2252.80
16491;DHT22;8356;51.214;3.270;2024-01-15T14:03:24;154.20;2252.80
16491;DHT22;8356;51.214;3.270;2024-01-15T14:05:51;154.10;2252.80
16491;DHT22;8356;51.214;3.270;2024-01-15T14:08:17;154.10;2252.80
16491;DHT22;8356;51.214;3.270;2024-01-15T14:10:43;154.00;2252.80
16491;DHT22;8356;51.214;3.270;2024-01-15T14:13:08;154.00;2252.80
16491;DHT22;8356;51.214;3.270;2024-01-15T14:15:34;154.00;2252.80
16491;DHT22;8356;51.214;3.270;2024-01-15T14:18:00;128.90;2252.80
16491;DHT22;8356;51.214;3.270;2024-01-15T14:20:26;154.10;2252.80
16491;DHT22;8356;51.214;3.270;2024-01-15T14:22:53;154.20;2252.80
16491;DHT22;8356;51.214;3.270;2024-01-15T14:25:22;154.20;2252.80
16491;DHT22;8356;51.214;3.270;2024-01-15T14:27:49;154.20;2252.80
16491;DHT22;8356;51.214;3.270;2024-01-15T14:30:15;154.00;2252.80
16491;DHT22;8356;51.214;3.270;2024-01-15T14:32:42;153.90;2252.80
16491;DHT22;8356;51.214;3.270;2024-01-15T14:35:08;153.90;2252.80
16491;DHT22;8356;51.214;3.270;2024-01-15T14:37:37;154.10;2252.80
16491;DHT22;8356;51.214;3.270;2024-01-15T14:40:03;153.90;2252.80
16491;DHT22;8356;51.214;3.270;2024-01-15T14:42:29;154.20;2252.80
16491;DHT22;8356;51.214;3.270;2024-01-15T14:44:56;154.30;2252.80
16491;DHT22;8356;51.214;3.270;2024-01-15T14:47:21;154.30;2252.80
16491;DHT22;8356;51.214;3.270;2024-01-15T14:49:49;154.30;2252.80
16491;DHT22;8356;51.214;3.270;2024-01-15T14:52:15;154.30;2252.80
16491;DHT22;8356;51.214;3.270;2024-01-15T14:54:41;154.30;2252.80
16491;DHT22;8356;51.214;3.270;2024-01-15T14:57:07;154.20;2252.80
16491;DHT22;8356;51.214;3.270;2024-01-15T14:59:32;154.10;2252.80
16491;DHT22;8356;51.214;3.270;2024-01-15T15:01:58;154.10;2252.80
16491;DHT22;8356;51.214;3.270;2024-01-15T15:04:24;154.20;2252.80